createdAt,value
2023-04-12T00:00:56.096Z,24.53
2023-04-12T00:03:22.654Z,21.83
2023-04-12T00:05:54.655Z,20.27
2023-04-12T00:08:26.548Z,19.90
2023-04-12T00:10:53.284Z,20.10
2023-04-12T00:13:19.779Z,20.20
2023-04-12T00:15:46.901Z,20.07
2023-04-12T00:18:13.508Z,19.33
2023-04-12T00:20:40.067Z,19.13
2023-04-12T00:23:06.839Z,18.87
2023-04-12T00:25:33.553Z,16.20
2023-04-12T00:27:59.988Z,18.73
2023-04-12T00:30:26.504Z,14.23
2023-04-12T00:32:53.131Z,15.80
2023-04-12T00:35:19.643Z,14.00
2023-04-12T00:37:46.000Z,15.03
2023-04-12T00:40:12.716Z,15.00
2023-04-12T00:42:39.500Z,12.63
2023-04-12T00:45:06.928Z,12.23
2023-04-12T00:47:35.696Z,12.37
2023-04-12T00:50:03.596Z,11.23
2023-04-12T00:52:34.171Z,10.53
2023-04-12T00:55:04.686Z,10.80
2023-04-12T00:57:37.040Z,11.27
2023-04-12T01:00:13.986Z,10.40
2023-04-12T01:02:51.108Z,10.50
2023-04-12T01:05:22.663Z,9.13
2023-04-12T01:08:19.358Z,10.50
2023-04-12T01:11:02.871Z,10.33
2023-04-12T01:13:36.298Z,10.20
2023-04-12T01:16:40.716Z,10.57
2023-04-12T01:19:37.513Z,10.00
2023-04-12T01:22:18.172Z,10.20
2023-04-12T01:25:03.612Z,10.37
2023-04-12T01:27:48.772Z,9.73
2023-04-12T01:30:17.513Z,9.17
2023-04-12T01:32:47.012Z,10.43
2023-04-12T01:35:14.929Z,9.20
2023-04-12T01:37:41.705Z,9.40
2023-04-12T01:40:10.053Z,9.47
2023-04-12T01:42:36.706Z,10.33
2023-04-12T01:45:03.486Z,9.77
2023-04-12T01:47:31.213Z,9.63
2023-04-12T01:50:12.238Z,10.10
2023-04-12T01:52:43.129Z,9.87
2023-04-12T01:55:10.326Z,9.83
2023-04-12T01:57:37.704Z,9.90
2023-04-12T02:00:07.786Z,10.20
2023-04-12T02:02:36.595Z,9.80
2023-04-12T02:05:04.815Z,9.70
2023-04-12T02:07:31.401Z,9.53
2023-04-12T02:09:57.943Z,9.40
2023-04-12T02:12:24.486Z,9.30
2023-04-12T02:14:52.125Z,8.70
2023-04-12T02:17:22.882Z,8.70
2023-04-12T02:19:51.502Z,9.10
2023-04-12T02:22:20.031Z,8.97
2023-04-12T02:24:49.551Z,9.30
2023-04-12T02:27:18.826Z,8.40
2023-04-12T02:29:45.826Z,8.50
2023-04-12T02:32:12.919Z,8.47
2023-04-12T02:34:39.986Z,9.13
2023-04-12T02:37:07.405Z,9.50
2023-04-12T02:39:34.547Z,9.50
2023-04-12T02:42:01.735Z,9.50
2023-04-12T02:44:31.486Z,8.63
2023-04-12T02:46:58.041Z,8.47
2023-04-12T02:49:24.423Z,9.13
2023-04-12T02:51:51.141Z,8.37
2023-04-12T02:54:17.494Z,9.17
2023-04-12T02:56:43.955Z,8.73
2023-04-12T02:59:12.407Z,8.60
2023-04-12T03:01:39.942Z,7.57
2023-04-12T03:04:07.656Z,8.43
2023-04-12T03:06:34.799Z,8.20
2023-04-12T03:09:01.449Z,8.33
2023-04-12T03:11:28.015Z,8.43
2023-04-12T03:13:55.218Z,8.30
2023-04-12T03:16:29.627Z,9.00
2023-04-12T03:18:56.906Z,8.57
2023-04-12T03:21:23.444Z,8.30
2023-04-12T03:23:49.940Z,8.63
2023-04-12T03:26:20.367Z,9.70
2023-04-12T03:28:47.960Z,10.00
2023-04-12T03:31:15.287Z,10.87
2023-04-12T03:33:42.403Z,11.40
2023-04-12T03:36:09.844Z,12.43
2023-04-12T03:38:36.349Z,12.33
2023-04-12T03:41:02.895Z,10.60
2023-04-12T03:43:35.767Z,11.60
2023-04-12T03:46:03.719Z,11.07
2023-04-12T03:48:30.390Z,10.77
2023-04-12T03:50:59.663Z,11.27
2023-04-12T03:53:31.444Z,10.53
2023-04-12T03:55:58.222Z,11.07
2023-04-12T03:58:24.684Z,11.63
2023-04-12T04:00:51.199Z,11.40
2023-04-12T04:03:18.378Z,11.93
2023-04-12T04:05:45.267Z,12.53
2023-04-12T04:08:11.808Z,12.07
2023-04-12T04:10:39.315Z,12.07
2023-04-12T04:13:05.734Z,12.07
2023-04-12T04:15:32.907Z,11.50
2023-04-12T04:17:59.442Z,11.60
2023-04-12T04:20:27.839Z,11.30
2023-04-12T04:22:55.000Z,11.30
2023-04-12T04:25:21.841Z,11.73
2023-04-12T04:27:49.506Z,12.67
2023-04-12T04:30:16.917Z,12.37
2023-04-12T04:32:43.757Z,12.03
2023-04-12T04:35:10.382Z,12.27
2023-04-12T04:37:37.185Z,12.43
2023-04-12T04:40:11.450Z,12.57
2023-04-12T04:42:39.800Z,12.37
2023-04-12T04:45:13.624Z,12.57
2023-04-12T04:47:40.757Z,12.17
2023-04-12T04:50:07.873Z,12.63
2023-04-12T04:52:34.356Z,13.00
2023-04-12T04:55:00.914Z,12.70
2023-04-12T04:57:27.735Z,11.83
2023-04-12T04:59:54.254Z,12.13
2023-04-12T05:02:21.410Z,12.83
2023-04-12T05:04:48.002Z,12.10
2023-04-12T05:07:14.439Z,12.17
2023-04-12T05:09:41.289Z,12.53
2023-04-12T05:12:08.346Z,12.07
2023-04-12T05:14:45.942Z,12.53
2023-04-12T05:17:14.382Z,12.17
2023-04-12T05:19:41.460Z,11.93
2023-04-12T05:22:08.545Z,12.00
2023-04-12T05:24:34.979Z,12.40
2023-04-12T05:27:01.962Z,12.17
2023-04-12T05:29:28.401Z,12.00
2023-04-12T05:31:55.135Z,12.73
2023-04-12T05:34:22.356Z,9.93
2023-04-12T05:36:49.569Z,8.83
2023-04-12T05:39:17.092Z,8.60
2023-04-12T05:41:44.908Z,8.37
2023-04-12T05:44:12.243Z,9.17
2023-04-12T05:46:39.132Z,9.43
2023-04-12T05:49:06.700Z,9.60
2023-04-12T05:51:40.968Z,13.43
2023-04-12T05:54:08.147Z,8.50
2023-04-12T05:56:35.239Z,8.10
2023-04-12T05:59:02.397Z,7.90
2023-04-12T06:01:35.103Z,7.97
2023-04-12T06:04:06.253Z,7.10
2023-04-12T06:06:33.773Z,7.53
2023-04-12T06:09:01.161Z,6.90
2023-04-12T06:11:28.053Z,7.13
2023-04-12T06:13:55.076Z,6.60
2023-04-12T06:16:22.496Z,6.57
2023-04-12T06:18:49.524Z,6.17
2023-04-12T06:21:16.345Z,5.53
2023-04-12T06:23:42.878Z,5.97
2023-04-12T06:26:09.757Z,5.18
2023-04-12T06:28:36.227Z,5.30
2023-04-12T06:31:04.165Z,4.90
2023-04-12T06:33:30.704Z,5.30
2023-04-12T06:35:57.846Z,5.75
2023-04-12T06:38:24.325Z,5.15
2023-04-12T06:40:50.818Z,5.45
2023-04-12T06:43:20.306Z,5.07
2023-04-12T06:45:46.871Z,5.07
2023-04-12T06:48:13.411Z,5.40
2023-04-12T06:50:40.039Z,5.82
2023-04-12T06:53:07.082Z,5.50
2023-04-12T06:55:33.615Z,5.35
2023-04-12T06:58:00.549Z,5.10
2023-04-12T07:00:27.410Z,5.35
2023-04-12T07:02:54.387Z,5.72
2023-04-12T07:05:21.173Z,5.10
2023-04-12T07:07:48.246Z,5.13
2023-04-12T07:10:14.759Z,4.82
2023-04-12T07:12:41.988Z,4.72
2023-04-12T07:15:09.063Z,4.70
2023-04-12T07:17:35.623Z,5.30
2023-04-12T07:20:02.239Z,4.60
2023-04-12T07:22:28.994Z,4.00
2023-04-12T07:24:55.366Z,4.22
2023-04-12T07:27:22.376Z,3.97
2023-04-12T07:29:52.036Z,4.00
2023-04-12T07:32:18.794Z,3.95
2023-04-12T07:34:45.332Z,3.80
2023-04-12T07:37:12.150Z,4.35
2023-04-12T07:39:40.513Z,4.15
2023-04-12T07:42:07.019Z,4.00
2023-04-12T07:44:35.586Z,3.85
2023-04-12T07:47:03.735Z,3.22
2023-04-12T07:49:30.115Z,3.50
2023-04-12T07:51:57.454Z,3.70
2023-04-12T07:54:27.277Z,3.72
2023-04-12T07:57:03.893Z,3.45
2023-04-12T07:59:31.563Z,3.20
2023-04-12T08:01:58.111Z,3.35
2023-04-12T08:04:24.715Z,3.10
2023-04-12T08:06:51.904Z,3.15
2023-04-12T08:09:18.434Z,2.90
2023-04-12T08:11:44.912Z,2.75
2023-04-12T08:14:11.467Z,2.78
2023-04-12T08:16:37.898Z,2.90
2023-04-12T08:19:04.357Z,2.70
2023-04-12T08:21:30.878Z,3.00
2023-04-12T08:23:57.856Z,2.30
2023-04-12T08:26:24.781Z,2.80
2023-04-12T08:28:51.310Z,2.35
2023-04-12T08:31:18.172Z,2.65
2023-04-12T08:33:44.633Z,2.40
2023-04-12T08:36:11.288Z,2.08
2023-04-12T08:38:45.562Z,1.88
2023-04-12T08:41:12.757Z,1.92
2023-04-12T08:43:44.057Z,1.60
2023-04-12T08:46:10.906Z,1.65
2023-04-12T08:48:38.327Z,1.48
2023-04-12T08:51:05.226Z,1.70
2023-04-12T08:53:32.034Z,1.20
2023-04-12T08:55:58.552Z,1.45
2023-04-12T08:58:25.676Z,1.63
2023-04-12T09:00:52.424Z,1.67
2023-04-12T09:03:21.958Z,1.52
2023-04-12T09:05:53.373Z,1.48
2023-04-12T09:08:19.776Z,1.40
2023-04-12T09:10:46.333Z,1.52
2023-04-12T09:13:12.913Z,1.52
2023-04-12T09:15:51.197Z,1.55
2023-04-12T09:18:18.644Z,1.38
2023-04-12T09:20:45.206Z,1.70
2023-04-12T09:23:29.724Z,1.30
2023-04-12T09:25:56.144Z,1.50
2023-04-12T09:28:27.832Z,1.80
2023-04-12T09:30:55.655Z,1.98
2023-04-12T09:33:55.627Z,1.58
2023-04-12T09:36:22.215Z,1.45
2023-04-12T09:39:00.292Z,1.50
2023-04-12T09:41:28.908Z,1.80
2023-04-12T09:43:55.526Z,1.63
2023-04-12T09:46:23.174Z,1.40
2023-04-12T09:48:52.387Z,1.50
2023-04-12T09:51:29.876Z,1.73
2023-04-12T09:53:59.868Z,1.42
2023-04-12T09:56:32.316Z,1.25
2023-04-12T09:59:06.948Z,1.50
2023-04-12T10:01:39.584Z,1.35
2023-04-12T10:04:09.723Z,1.42
2023-04-12T10:06:41.363Z,1.42
2023-04-12T10:09:08.990Z,1.48
2023-04-12T10:11:35.824Z,1.42
2023-04-12T10:14:05.978Z,1.25
2023-04-12T10:16:34.579Z,1.60
2023-04-12T10:19:02.604Z,1.35
2023-04-12T10:21:29.779Z,2.00
2023-04-12T10:23:57.837Z,1.60
2023-04-12T10:26:24.582Z,1.95
2023-04-12T10:29:25.857Z,2.22
2023-04-12T10:32:01.253Z,1.60
2023-04-12T10:34:36.586Z,1.85
2023-04-12T10:37:04.293Z,1.95
2023-04-12T10:39:42.514Z,2.00
2023-04-12T10:42:26.771Z,1.63
2023-04-12T10:44:55.993Z,2.85
2023-04-12T10:47:48.568Z,1.83
2023-04-12T10:50:25.141Z,1.63
2023-04-12T10:53:22.066Z,2.40
2023-04-12T10:55:48.960Z,2.20
2023-04-12T10:58:47.755Z,2.67
2023-04-12T11:01:16.784Z,2.50
2023-04-12T11:04:20.991Z,2.50
2023-04-12T11:06:49.585Z,2.60
2023-04-12T11:09:28.187Z,2.90
2023-04-12T11:12:03.826Z,3.03
2023-04-12T11:14:50.248Z,3.13
2023-04-12T11:17:16.810Z,2.72
2023-04-12T11:19:45.392Z,2.95
2023-04-12T11:22:13.959Z,3.42
2023-04-12T11:24:41.517Z,3.33
2023-04-12T11:27:08.441Z,3.30
2023-04-12T11:29:35.251Z,3.28
2023-04-12T11:32:16.842Z,3.35
2023-04-12T11:34:45.211Z,3.03
2023-04-12T11:37:12.087Z,3.30
2023-04-12T11:39:43.657Z,3.70
2023-04-12T11:42:19.759Z,3.50
2023-04-12T11:47:18.056Z,3.55
2023-04-12T11:49:52.148Z,3.63
2023-04-12T11:52:19.635Z,3.17
2023-04-12T11:54:47.917Z,4.13
2023-04-12T11:57:16.144Z,3.72
2023-04-12T11:59:47.123Z,4.15
2023-04-12T12:02:22.586Z,3.92
2023-04-12T12:04:50.786Z,3.70
2023-04-12T12:07:17.992Z,3.70
2023-04-12T12:09:45.738Z,3.92
2023-04-12T12:12:13.717Z,3.55
2023-04-12T12:14:40.863Z,3.80
2023-04-12T12:17:12.196Z,4.30
2023-04-12T12:19:42.737Z,3.72
2023-04-12T12:22:22.249Z,3.10
2023-04-12T12:24:55.146Z,3.65
2023-04-12T12:27:30.923Z,3.38
2023-04-12T12:30:01.619Z,3.20
2023-04-12T12:32:34.032Z,2.92
2023-04-12T12:35:02.115Z,3.28
2023-04-12T12:37:30.109Z,2.92
2023-04-12T12:40:16.356Z,3.42
2023-04-12T12:42:52.597Z,2.95
2023-04-12T12:45:20.603Z,3.20
2023-04-12T12:48:00.416Z,3.17
2023-04-12T12:50:28.553Z,3.10
2023-04-12T12:52:55.796Z,2.70
2023-04-12T12:55:23.495Z,3.28
2023-04-12T12:58:07.436Z,2.67
2023-04-12T13:00:34.831Z,2.58
2023-04-12T13:03:01.871Z,2.65
2023-04-12T13:05:28.684Z,2.42
2023-04-12T13:07:55.100Z,2.17
2023-04-12T13:10:21.700Z,2.15
2023-04-12T13:12:48.126Z,2.33
2023-04-12T13:17:44.134Z,2.00
2023-04-12T13:20:11.044Z,2.00
2023-04-12T13:22:37.926Z,2.00
2023-04-12T13:25:04.720Z,1.98
2023-04-12T13:27:32.119Z,2.58
2023-04-12T13:29:58.680Z,1.83
2023-04-12T13:32:25.204Z,2.30
2023-04-12T13:34:52.237Z,2.05
2023-04-12T13:37:18.698Z,2.10
2023-04-12T13:39:45.486Z,2.30
2023-04-12T13:42:12.072Z,2.00
2023-04-12T13:44:38.579Z,1.90
2023-04-12T13:47:05.262Z,1.77
2023-04-12T13:49:31.645Z,1.83
2023-04-12T13:51:58.163Z,1.70
2023-04-12T13:54:24.633Z,1.33
2023-04-12T13:56:51.183Z,1.80
2023-04-12T13:59:17.790Z,2.00
2023-04-12T14:01:44.467Z,1.80
2023-04-12T14:04:11.245Z,1.80
2023-04-12T14:06:38.743Z,1.92
2023-04-12T14:09:08.866Z,1.60
2023-04-12T14:11:46.811Z,1.90
2023-04-12T14:14:16.121Z,1.95
2023-04-12T14:16:44.815Z,1.70
2023-04-12T14:19:13.313Z,1.50
2023-04-12T14:21:39.845Z,1.67
2023-04-12T14:24:06.317Z,1.70
2023-04-12T14:26:36.458Z,1.50
2023-04-12T14:29:02.831Z,1.70
2023-04-12T14:31:29.254Z,1.55
2023-04-12T14:33:55.788Z,1.58
2023-04-12T14:36:22.326Z,1.75
2023-04-12T14:38:49.668Z,1.77
2023-04-12T14:41:16.945Z,2.10
2023-04-12T14:43:43.463Z,2.00
2023-04-12T14:46:11.830Z,2.00
2023-04-12T14:48:38.439Z,1.85
2023-04-12T14:51:06.430Z,1.98
2023-04-12T14:53:34.003Z,1.95
2023-04-12T14:56:02.475Z,2.40
2023-04-12T14:58:30.037Z,2.20
2023-04-12T15:00:58.003Z,2.10
2023-04-12T15:03:26.702Z,2.35
2023-04-12T15:05:53.320Z,2.42
2023-04-12T15:08:19.837Z,2.45
2023-04-12T15:10:46.541Z,2.75
2023-04-12T15:13:14.017Z,2.60
2023-04-12T15:15:41.645Z,2.73
2023-04-12T15:18:08.741Z,2.90
2023-04-12T15:20:35.984Z,3.43
2023-04-12T15:23:02.808Z,3.30
2023-04-12T15:25:30.952Z,4.03
2023-04-12T15:27:57.621Z,3.38
2023-04-12T15:30:25.178Z,3.87
2023-04-12T15:32:52.391Z,3.63
2023-04-12T15:35:26.501Z,3.85
2023-04-12T15:37:55.069Z,3.93
2023-04-12T15:40:22.870Z,3.57
2023-04-12T15:42:51.124Z,3.50
2023-04-12T15:45:18.169Z,4.70
2023-04-12T15:47:46.359Z,3.63
2023-04-12T15:50:13.131Z,4.00
2023-04-12T15:52:42.861Z,4.30
2023-04-12T15:55:11.853Z,4.60
2023-04-12T15:57:38.556Z,4.30
2023-04-12T16:00:21.092Z,3.63
2023-04-12T16:02:53.412Z,4.30
2023-04-12T16:05:21.073Z,4.10
2023-04-12T16:07:51.368Z,3.90
2023-04-12T16:10:22.480Z,3.93
2023-04-12T16:12:50.100Z,3.80
2023-04-12T16:15:17.606Z,4.20
2023-04-12T16:17:45.060Z,4.30
2023-04-12T16:20:13.456Z,3.97
2023-04-12T16:22:40.884Z,3.87
2023-04-12T16:25:08.432Z,4.10
2023-04-12T16:27:34.948Z,4.40
2023-04-12T16:30:04.239Z,4.70
2023-04-12T16:32:31.818Z,4.97
2023-04-12T16:34:59.034Z,4.20
2023-04-12T16:37:28.268Z,3.90
2023-04-12T16:39:54.613Z,4.67
2023-04-12T16:42:22.847Z,4.75
2023-04-12T16:44:49.682Z,4.40
2023-04-12T16:47:16.253Z,4.83
2023-04-12T16:49:43.335Z,5.07
2023-04-12T16:52:09.850Z,3.77
2023-04-12T16:54:36.455Z,4.30
2023-04-12T16:57:04.063Z,5.47
2023-04-12T16:59:34.351Z,5.40
2023-04-12T17:02:01.207Z,6.70
2023-04-12T17:04:28.009Z,6.10
2023-04-12T17:06:54.571Z,6.80
2023-04-12T17:09:21.017Z,5.97
2023-04-12T17:11:47.507Z,4.40
2023-04-12T17:14:14.826Z,5.23
2023-04-12T17:16:41.500Z,4.87
2023-04-12T17:19:10.489Z,4.37
2023-04-12T17:21:41.394Z,4.90
2023-04-12T17:24:08.405Z,4.70
2023-04-12T17:26:35.023Z,4.50
2023-04-12T17:29:02.310Z,5.00
2023-04-12T17:34:01.524Z,5.60
2023-04-12T17:36:31.609Z,4.70
2023-04-12T17:38:59.723Z,4.33
2023-04-12T17:41:30.292Z,4.50
2023-04-12T17:43:56.953Z,4.23
2023-04-12T17:46:24.570Z,3.67
2023-04-12T17:48:51.153Z,4.07
2023-04-12T17:51:17.529Z,4.10
2023-04-12T17:53:43.976Z,4.60
2023-04-12T17:56:10.645Z,4.27
2023-04-12T17:58:37.124Z,3.70
2023-04-12T18:01:03.722Z,4.30
2023-04-12T18:03:31.511Z,4.57
2023-04-12T18:05:59.468Z,4.20
2023-04-12T18:08:25.873Z,4.10
2023-04-12T18:10:52.424Z,4.20
2023-04-12T18:13:19.023Z,4.40
2023-04-12T18:15:45.592Z,4.80
2023-04-12T18:18:12.486Z,4.70
2023-04-12T18:20:39.051Z,5.57
2023-04-12T18:23:05.525Z,4.80
2023-04-12T18:25:32.254Z,4.87
2023-04-12T18:27:59.020Z,5.47
2023-04-12T18:30:25.687Z,4.80
2023-04-12T18:32:52.342Z,4.70
2023-04-12T18:35:19.117Z,5.10
2023-04-12T18:37:45.700Z,4.80
2023-04-12T18:40:13.185Z,5.40
2023-04-12T18:42:39.691Z,4.72
2023-04-12T18:45:06.753Z,5.17
2023-04-12T18:47:33.394Z,5.80
2023-04-12T18:49:59.961Z,4.90
2023-04-12T18:52:26.611Z,5.00
2023-04-12T18:54:53.076Z,4.97
2023-04-12T18:57:19.657Z,5.30
2023-04-12T18:59:48.848Z,4.97
2023-04-12T19:02:18.245Z,5.00
2023-04-12T19:04:44.798Z,5.47
2023-04-12T19:07:11.311Z,5.43
2023-04-12T19:09:37.962Z,4.63
2023-04-12T19:12:05.288Z,4.25
2023-04-12T19:14:32.070Z,4.53
2023-04-12T19:17:02.544Z,4.20
2023-04-12T19:19:29.148Z,4.00
2023-04-12T19:21:55.812Z,4.33
2023-04-12T19:24:22.442Z,4.20
2023-04-12T19:26:49.992Z,4.13
2023-04-12T19:29:16.607Z,4.30
2023-04-12T19:31:43.785Z,4.50
2023-04-12T19:34:11.684Z,4.07
2023-04-12T19:36:38.419Z,4.60
2023-04-12T19:39:05.104Z,4.57
2023-04-12T19:41:31.650Z,4.00
2023-04-12T19:43:58.235Z,3.97
2023-04-12T19:46:25.065Z,4.07
2023-04-12T19:48:53.375Z,3.83
2023-04-12T19:51:19.962Z,3.70
2023-04-12T19:53:49.018Z,3.80
2023-04-12T19:56:15.520Z,3.77
2023-04-12T19:58:42.247Z,4.33
2023-04-12T20:01:09.962Z,3.88
2023-04-12T20:03:37.644Z,4.07
2023-04-12T20:06:05.285Z,4.32
2023-04-12T20:08:32.145Z,4.20
2023-04-12T20:10:59.242Z,4.00
2023-04-12T20:13:25.930Z,4.50
2023-04-12T20:15:54.107Z,4.20
2023-04-12T20:18:20.599Z,4.40
2023-04-12T20:20:47.387Z,4.43
2023-04-12T20:23:14.197Z,4.18
2023-04-12T20:25:41.502Z,3.90
2023-04-12T20:28:10.645Z,4.10
2023-04-12T20:30:39.318Z,3.95
2023-04-12T20:33:06.879Z,3.93
2023-04-12T20:35:33.356Z,4.60
2023-04-12T20:38:00.423Z,4.80
2023-04-12T20:40:29.666Z,4.20
2023-04-12T20:42:56.802Z,4.50
2023-04-12T20:45:23.625Z,4.60
2023-04-12T20:47:50.211Z,4.03
2023-04-12T20:50:18.594Z,4.33
2023-04-12T20:52:45.478Z,4.27
2023-04-12T20:55:14.039Z,4.40
2023-04-12T20:57:40.768Z,4.30
2023-04-12T21:00:23.718Z,4.40
2023-04-12T21:02:50.871Z,4.53
2023-04-12T21:05:17.520Z,4.70
2023-04-12T21:07:46.880Z,4.57
2023-04-12T21:10:14.772Z,5.13
2023-04-12T21:12:44.993Z,4.83
2023-04-12T21:15:12.136Z,5.13
2023-04-12T21:17:39.035Z,4.80
2023-04-12T21:20:13.648Z,5.20
2023-04-12T21:22:41.906Z,5.10
2023-04-12T21:25:13.683Z,4.95
2023-04-12T21:27:42.423Z,5.07
2023-04-12T21:30:12.529Z,5.22
2023-04-12T21:32:39.663Z,5.40
2023-04-12T21:35:08.367Z,5.40
2023-04-12T21:37:37.937Z,5.53
2023-04-12T21:40:09.117Z,5.33
2023-04-12T21:42:37.049Z,5.27
2023-04-12T21:45:05.789Z,5.60
2023-04-12T21:47:32.529Z,5.50
2023-04-12T21:49:59.111Z,6.00
2023-04-12T21:52:26.595Z,5.97
2023-04-12T21:54:54.082Z,6.45
2023-04-12T21:57:20.749Z,6.00
2023-04-12T21:59:47.204Z,6.20
2023-04-12T22:02:14.082Z,6.18
2023-04-12T22:04:41.198Z,5.83
2023-04-12T22:07:12.471Z,5.95
2023-04-12T22:09:40.076Z,6.40
2023-04-12T22:12:07.092Z,6.18
2023-04-12T22:14:37.042Z,6.55
2023-04-12T22:17:04.283Z,6.20
2023-04-12T22:19:30.734Z,6.13
2023-04-12T22:21:57.414Z,6.60
2023-04-12T22:24:25.295Z,6.60
2023-04-12T22:26:51.692Z,6.65
2023-04-12T22:29:18.652Z,7.15
2023-04-12T22:31:45.351Z,7.00
2023-04-12T22:34:11.733Z,7.70
2023-04-12T22:36:42.109Z,7.50
2023-04-12T22:39:15.366Z,8.57
2023-04-12T22:41:41.908Z,7.23
2023-04-12T22:44:09.324Z,7.97
2023-04-12T22:46:39.150Z,8.27
2023-04-12T22:49:05.773Z,7.80
2023-04-12T22:51:32.590Z,8.15
2023-04-12T22:53:59.434Z,8.30
2023-04-12T22:56:27.179Z,7.68
2023-04-12T22:58:53.782Z,8.38
2023-04-12T23:01:21.482Z,8.00
2023-04-12T23:03:47.991Z,7.70
2023-04-12T23:06:14.617Z,8.00
2023-04-12T23:08:41.138Z,7.67
2023-04-12T23:11:08.328Z,7.17
2023-04-12T23:13:35.281Z,6.50
2023-04-12T23:16:03.906Z,6.93
2023-04-12T23:18:30.832Z,6.13
2023-04-12T23:20:57.560Z,5.72
2023-04-12T23:23:27.102Z,5.38
2023-04-12T23:25:54.755Z,4.57
2023-04-12T23:28:24.282Z,4.47
2023-04-12T23:30:51.829Z,4.40
2023-04-12T23:33:21.010Z,4.10
2023-04-12T23:35:58.471Z,4.10
2023-04-12T23:38:32.675Z,3.92
2023-04-12T23:41:04.086Z,3.40
2023-04-12T23:43:32.563Z,3.60
2023-04-12T23:45:59.461Z,3.23
2023-04-12T23:48:26.238Z,2.97
2023-04-12T23:50:52.887Z,2.70
2023-04-12T23:53:19.954Z,2.42
2023-04-12T23:55:49.099Z,2.50
2023-04-12T23:58:16.220Z,2.50
